sensor_id;sensor_type;location;lat;lon;timestamp;pressure;altitude;pressure_sealevel;temperature;humidity
52032;BME280;38044;45.148;39.604;2022-11-15T00:00:49;101841.69;;;0.05;81.93
52032;BME280;38044;45.148;39.604;2022-11-15T00:03:16;101985.13;;;1.00;82.07
52032;BME280;38044;45.148;39.604;2022-11-15T00:05:42;101988.66;;;0.79;82.03
52032;BME280;38044;45.148;39.604;2022-11-15T00:08:09;101808.22;;;-0.31;81.74
52032;BME280;38044;45.148;39.604;2022-11-15T00:10:35;101946.47;;;0.49;81.78
52032;BME280;38044;45.148;39.604;2022-11-15T00:13:07;101828.84;;;-0.19;81.65
52032;BME280;38044;45.148;39.604;2022-11-15T00:15:35;101792.59;;;-0.47;81.96
52032;BME280;38044;45.148;39.604;2022-11-15T00:18:03;101991.69;;;0.76;81.81
52032;BME280;38044;45.148;39.604;2022-11-15T00:20:29;101968.25;;;0.73;81.99
52032;BME280;38044;45.148;39.604;2022-11-15T00:22:55;101989.91;;;0.83;81.85
52032;BME280;38044;45.148;39.604;2022-11-15T00:25:21;101883.44;;;0.10;81.69
52032;BME280;38044;45.148;39.604;2022-11-15T00:27:47;101974.22;;;0.60;81.24
52032;BME280;38044;45.148;39.604;2022-11-15T00:30:13;102002.78;;;0.64;81.53
52032;BME280;38044;45.148;39.604;2022-11-15T00:32:39;101969.63;;;0.47;81.60
52032;BME280;38044;45.148;39.604;2022-11-15T00:35:05;101992.44;;;0.48;81.53
52032;BME280;38044;45.148;39.604;2022-11-15T00:37:31;101956.78;;;0.22;81.98
52032;BME280;38044;45.148;39.604;2022-11-15T00:39:56;101816.69;;;-0.72;81.77
52032;BME280;38044;45.148;39.604;2022-11-15T00:42:22;101785.50;;;-0.98;81.62
52032;BME280;38044;45.148;39.604;2022-11-15T00:44:48;101781.31;;;-0.92;81.81
52032;BME280;38044;45.148;39.604;2022-11-15T00:47:14;101979.09;;;0.35;81.87
52032;BME280;38044;45.148;39.604;2022-11-15T00:49:40;101831.78;;;-0.51;81.62
52032;BME280;38044;45.148;39.604;2022-11-15T00:52:07;101983.03;;;0.45;81.56
52032;BME280;38044;45.148;39.604;2022-11-15T00:54:33;101978.34;;;0.41;81.01
52032;BME280;38044;45.148;39.604;2022-11-15T00:56:58;101985.84;;;0.37;81.10
52032;BME280;38044;45.148;39.604;2022-11-15T00:59:24;101947.75;;;0.17;81.46
52032;BME280;38044;45.148;39.604;2022-11-15T01:01:50;101982.81;;;0.40;81.63
52032;BME280;38044;45.148;39.604;2022-11-15T01:04:16;101969.88;;;0.31;81.49
52032;BME280;38044;45.148;39.604;2022-11-15T01:06:42;101952.22;;;0.16;81.26
52032;BME280;38044;45.148;39.604;2022-11-15T01:09:08;101973.00;;;0.19;81.04
52032;BME280;38044;45.148;39.604;2022-11-15T01:11:34;101973.25;;;0.03;80.78
52032;BME280;38044;45.148;39.604;2022-11-15T01:13:59;101976.28;;;0.00;81.21
52032;BME280;38044;45.148;39.604;2022-11-15T01:16:25;101991.13;;;0.01;81.44
52032;BME280;38044;45.148;39.604;2022-11-15T01:18:51;101996.53;;;-0.07;81.34
52032;BME280;38044;45.148;39.604;2022-11-15T01:21:19;101987.78;;;-0.08;81.24
52032;BME280;38044;45.148;39.604;2022-11-15T01:23:45;101813.28;;;-1.17;81.33
52032;BME280;38044;45.148;39.604;2022-11-15T01:26:13;101941.59;;;-0.27;81.11
52032;BME280;38044;45.148;39.604;2022-11-15T01:28:40;102000.88;;;0.01;81.28
52032;BME280;38044;45.148;39.604;2022-11-15T01:31:11;101947.63;;;-0.33;81.16
52032;BME280;38044;45.148;39.604;2022-11-15T01:33:38;101994.69;;;-0.07;81.57
52032;BME280;38044;45.148;39.604;2022-11-15T01:36:09;101792.91;;;-1.23;81.31
52032;BME280;38044;45.148;39.604;2022-11-15T01:38:36;101801.06;;;-1.18;81.00
52032;BME280;38044;45.148;39.604;2022-11-15T01:41:02;101865.31;;;-0.81;81.04
52032;BME280;38044;45.148;39.604;2022-11-15T01:43:31;101992.75;;;0.02;81.51
52032;BME280;38044;45.148;39.604;2022-11-15T01:48:48;101906.44;;;-0.42;81.73
52032;BME280;38044;45.148;39.604;2022-11-15T01:51:17;101846.69;;;-0.94;81.23
52032;BME280;38044;45.148;39.604;2022-11-15T01:53:47;101805.28;;;-1.08;80.90
52032;BME280;38044;45.148;39.604;2022-11-15T01:56:21;101834.84;;;-0.98;80.81
52032;BME280;38044;45.148;39.604;2022-11-15T01:58:49;101934.34;;;-0.39;80.58
52032;BME280;38044;45.148;39.604;2022-11-15T02:01:16;101959.00;;;-0.32;80.71
52032;BME280;38044;45.148;39.604;2022-11-15T02:04:02;101942.97;;;-0.60;80.41
52032;BME280;38044;45.148;39.604;2022-11-15T02:06:30;101776.31;;;-1.76;80.77
52032;BME280;38044;45.148;39.604;2022-11-15T02:08:56;101973.25;;;-0.48;80.85
52032;BME280;38044;45.148;39.604;2022-11-15T02:11:23;101939.00;;;-0.71;80.67
52032;BME280;38044;45.148;39.604;2022-11-15T02:13:49;101928.16;;;-0.76;80.57
52032;BME280;38044;45.148;39.604;2022-11-15T02:19:39;101847.38;;;-1.45;81.24
52032;BME280;38044;45.148;39.604;2022-11-15T02:30:55;101949.28;;;-0.91;81.70
52032;BME280;38044;45.148;39.604;2022-11-15T02:33:37;101984.16;;;-0.66;81.63
52032;BME280;38044;45.148;39.604;2022-11-15T02:36:34;101977.88;;;-0.50;81.56
52032;BME280;38044;45.148;39.604;2022-11-15T02:41:54;101977.50;;;-0.62;82.53
52032;BME280;38044;45.148;39.604;2022-11-15T02:44:32;101689.06;;;-2.34;82.80
52032;BME280;38044;45.148;39.604;2022-11-15T02:47:02;101975.88;;;-0.48;83.18
52032;BME280;38044;45.148;39.604;2022-11-15T02:50:03;101976.88;;;-0.34;82.44
52032;BME280;38044;45.148;39.604;2022-11-15T02:52:31;101978.59;;;-0.41;81.37
52032;BME280;38044;45.148;39.604;2022-11-15T02:54:59;101937.19;;;-0.71;80.71
52032;BME280;38044;45.148;39.604;2022-11-15T03:00:19;101848.75;;;-1.34;80.84
52032;BME280;38044;45.148;39.604;2022-11-15T03:05:35;101986.44;;;-0.48;81.71
52032;BME280;38044;45.148;39.604;2022-11-15T03:10:45;101812.47;;;-1.85;81.87
52032;BME280;38044;45.148;39.604;2022-11-15T03:16:09;101946.34;;;-0.96;82.08
52032;BME280;38044;45.148;39.604;2022-11-15T03:18:40;102004.09;;;-0.63;81.77
52032;BME280;38044;45.148;39.604;2022-11-15T03:21:09;101837.25;;;-1.71;81.27
52032;BME280;38044;45.148;39.604;2022-11-15T03:23:38;101959.84;;;-0.91;81.18
52032;BME280;38044;45.148;39.604;2022-11-15T03:26:07;102032.16;;;-0.62;80.82
52032;BME280;38044;45.148;39.604;2022-11-15T03:28:59;102007.38;;;-0.61;80.38
52032;BME280;38044;45.148;39.604;2022-11-15T03:31:24;101801.91;;;-1.99;79.78
52032;BME280;38044;45.148;39.604;2022-11-15T03:34:58;101997.34;;;-0.81;79.82
52032;BME280;38044;45.148;39.604;2022-11-15T03:36:58;102003.72;;;-0.90;80.13
52032;BME280;38044;45.148;39.604;2022-11-15T03:39:25;101958.84;;;-1.28;80.30
52032;BME280;38044;45.148;39.604;2022-11-15T03:44:38;101968.03;;;-1.24;80.34
52032;BME280;38044;45.148;39.604;2022-11-15T03:49:45;102012.59;;;-1.06;80.65
52032;BME280;38044;45.148;39.604;2022-11-15T03:52:12;101995.66;;;-1.11;80.53
52032;BME280;38044;45.148;39.604;2022-11-15T03:54:51;102017.78;;;-0.98;80.58
52032;BME280;38044;45.148;39.604;2022-11-15T03:57:18;101996.00;;;-1.15;80.41
52032;BME280;38044;45.148;39.604;2022-11-15T03:59:44;102008.13;;;-1.20;80.27
52032;BME280;38044;45.148;39.604;2022-11-15T04:02:11;102026.75;;;-1.22;80.38
52032;BME280;38044;45.148;39.604;2022-11-15T04:04:37;101975.41;;;-1.57;80.10
52032;BME280;38044;45.148;39.604;2022-11-15T04:07:03;101968.31;;;-1.56;80.31
52032;BME280;38044;45.148;39.604;2022-11-15T04:09:29;101827.88;;;-2.42;80.29
52032;BME280;38044;45.148;39.604;2022-11-15T04:11:54;101991.00;;;-1.47;80.60
52032;BME280;38044;45.148;39.604;2022-11-15T04:14:20;102013.59;;;-1.30;80.42
52032;BME280;38044;45.148;39.604;2022-11-15T04:16:46;102030.25;;;-1.29;80.70
52032;BME280;38044;45.148;39.604;2022-11-15T04:19:12;101973.13;;;-1.60;80.47
52032;BME280;38044;45.148;39.604;2022-11-15T04:21:56;101888.91;;;-2.08;80.23
52032;BME280;38044;45.148;39.604;2022-11-15T04:24:42;101981.78;;;-1.51;80.43
52032;BME280;38044;45.148;39.604;2022-11-15T04:27:09;101764.28;;;-2.85;80.37
52032;BME280;38044;45.148;39.604;2022-11-15T04:29:38;101977.16;;;-1.49;80.42
52032;BME280;38044;45.148;39.604;2022-11-15T04:32:06;101961.47;;;-1.66;80.64
52032;BME280;38044;45.148;39.604;2022-11-15T04:34:32;102018.22;;;-1.32;81.14
52032;BME280;38044;45.148;39.604;2022-11-15T04:36:58;102021.88;;;-1.33;80.96
52032;BME280;38044;45.148;39.604;2022-11-15T04:39:42;101913.13;;;-2.12;81.21
52032;BME280;38044;45.148;39.604;2022-11-15T04:42:08;102045.38;;;-1.46;81.36
52032;BME280;38044;45.148;39.604;2022-11-15T04:44:35;102032.13;;;-1.38;81.72
52032;BME280;38044;45.148;39.604;2022-11-15T04:47:01;101859.13;;;-2.39;81.75
52032;BME280;38044;45.148;39.604;2022-11-15T04:49:27;102038.38;;;-1.31;81.82
52032;BME280;38044;45.148;39.604;2022-11-15T04:51:53;101901.03;;;-1.98;81.94
52032;BME280;38044;45.148;39.604;2022-11-15T04:54:18;102038.75;;;-0.96;81.66
52032;BME280;38044;45.148;39.604;2022-11-15T04:56:44;102030.09;;;-0.90;81.09
52032;BME280;38044;45.148;39.604;2022-11-15T04:59:10;102057.66;;;-0.70;80.63
52032;BME280;38044;45.148;39.604;2022-11-15T05:01:36;101899.47;;;-1.47;79.94
52032;BME280;38044;45.148;39.604;2022-11-15T05:04:03;102048.91;;;-0.55;79.74
52032;BME280;38044;45.148;39.604;2022-11-15T05:06:45;102038.34;;;-0.55;79.49
52032;BME280;38044;45.148;39.604;2022-11-15T05:09:11;102029.97;;;-0.44;79.18
52032;BME280;38044;45.148;39.604;2022-11-15T05:11:39;102043.31;;;-0.22;78.85
52032;BME280;38044;45.148;39.604;2022-11-15T05:14:05;102035.75;;;-0.26;78.60
52032;BME280;38044;45.148;39.604;2022-11-15T05:16:31;102035.53;;;-0.24;78.49
52032;BME280;38044;45.148;39.604;2022-11-15T05:18:57;102011.56;;;-0.37;78.33
52032;BME280;38044;45.148;39.604;2022-11-15T05:21:23;102052.78;;;-0.13;78.37
52032;BME280;38044;45.148;39.604;2022-11-15T05:23:49;102068.72;;;-0.07;78.24
52032;BME280;38044;45.148;39.604;2022-11-15T05:26:16;102051.38;;;-0.09;78.51
52032;BME280;38044;45.148;39.604;2022-11-15T05:28:43;102061.50;;;0.02;78.23
52032;BME280;38044;45.148;39.604;2022-11-15T05:31:12;102046.00;;;-0.01;78.33
52032;BME280;38044;45.148;39.604;2022-11-15T05:33:39;101937.78;;;-0.39;78.13
52032;BME280;38044;45.148;39.604;2022-11-15T05:36:36;102060.44;;;0.69;77.76
52032;BME280;38044;45.148;39.604;2022-11-15T05:39:05;101897.63;;;-0.34;77.10
52032;BME280;38044;45.148;39.604;2022-11-15T05:44:00;102032.59;;;0.73;76.40
52032;BME280;38044;45.148;39.604;2022-11-15T05:46:26;102069.19;;;1.12;76.38
52032;BME280;38044;45.148;39.604;2022-11-15T05:48:53;102079.06;;;1.25;76.08
52032;BME280;38044;45.148;39.604;2022-11-15T05:51:22;102029.22;;;1.07;75.76
52032;BME280;38044;45.148;39.604;2022-11-15T05:53:49;101989.28;;;0.81;75.61
52032;BME280;38044;45.148;39.604;2022-11-15T05:56:15;101923.16;;;0.38;75.49
52032;BME280;38044;45.148;39.604;2022-11-15T05:58:42;102052.88;;;1.37;75.72
52032;BME280;38044;45.148;39.604;2022-11-15T06:01:08;102077.25;;;1.54;75.40
52032;BME280;38044;45.148;39.604;2022-11-15T06:03:34;101918.09;;;0.64;75.05
52032;BME280;38044;45.148;39.604;2022-11-15T06:06:00;102023.53;;;1.39;75.14
52032;BME280;38044;45.148;39.604;2022-11-15T06:08:27;101902.47;;;1.04;74.71
52032;BME280;38044;45.148;39.604;2022-11-15T06:10:53;101972.88;;;1.55;74.09
52032;BME280;38044;45.148;39.604;2022-11-15T06:13:18;102060.88;;;2.20;73.95
52032;BME280;38044;45.148;39.604;2022-11-15T06:15:44;102021.25;;;2.12;73.54
52032;BME280;38044;45.148;39.604;2022-11-15T06:18:10;102061.75;;;2.40;73.24
52032;BME280;38044;45.148;39.604;2022-11-15T06:20:36;101897.41;;;1.51;72.86
52032;BME280;38044;45.148;39.604;2022-11-15T06:23:04;101896.91;;;1.75;72.76
52032;BME280;38044;45.148;39.604;2022-11-15T06:25:30;101895.88;;;1.83;72.24
52032;BME280;38044;45.148;39.604;2022-11-15T06:27:58;102030.41;;;2.84;72.17
52032;BME280;38044;45.148;39.604;2022-11-15T06:30:25;102073.53;;;3.26;71.68
52032;BME280;38044;45.148;39.604;2022-11-15T06:32:51;102070.03;;;3.52;71.33
52032;BME280;38044;45.148;39.604;2022-11-15T06:35:23;102060.34;;;3.77;70.62
52032;BME280;38044;45.148;39.604;2022-11-15T06:37:49;102018.06;;;3.69;70.52
52032;BME280;38044;45.148;39.604;2022-11-15T06:40:15;102077.09;;;3.98;70.47
52032;BME280;38044;45.148;39.604;2022-11-15T06:42:41;102069.72;;;4.06;70.47
52032;BME280;38044;45.148;39.604;2022-11-15T06:45:07;102078.84;;;4.17;70.08
52032;BME280;38044;45.148;39.604;2022-11-15T06:47:33;102075.41;;;4.10;70.00
52032;BME280;38044;45.148;39.604;2022-11-15T06:49:59;101926.50;;;3.32;70.53
52032;BME280;38044;45.148;39.604;2022-11-15T06:52:25;102083.25;;;4.43;69.75
52032;BME280;38044;45.148;39.604;2022-11-15T06:54:51;102077.56;;;4.33;69.55
52032;BME280;38044;45.148;39.604;2022-11-15T06:57:16;102095.16;;;4.41;69.51
52032;BME280;38044;45.148;39.604;2022-11-15T06:59:42;102048.41;;;4.00;69.94
52032;BME280;38044;45.148;39.604;2022-11-15T07:02:14;102050.22;;;4.06;70.35
52032;BME280;38044;45.148;39.604;2022-11-15T07:04:40;102014.53;;;3.82;70.51
52032;BME280;38044;45.148;39.604;2022-11-15T07:07:06;102083.31;;;4.30;70.82
52032;BME280;38044;45.148;39.604;2022-11-15T07:09:32;101949.75;;;3.56;70.25
52032;BME280;38044;45.148;39.604;2022-11-15T07:11:58;102056.66;;;4.37;70.19
52032;BME280;38044;45.148;39.604;2022-11-15T07:14:24;102093.72;;;4.77;70.48
52032;BME280;38044;45.148;39.604;2022-11-15T07:16:49;101945.25;;;3.64;70.51
52032;BME280;38044;45.148;39.604;2022-11-15T07:19:15;102064.16;;;4.08;70.91
52032;BME280;38044;45.148;39.604;2022-11-15T07:21:41;102076.59;;;4.21;72.06
52032;BME280;38044;45.148;39.604;2022-11-15T07:24:07;102050.63;;;4.16;72.19
52032;BME280;38044;45.148;39.604;2022-11-15T07:26:33;102092.66;;;4.53;71.58
52032;BME280;38044;45.148;39.604;2022-11-15T07:28:59;102082.03;;;4.78;71.45
52032;BME280;38044;45.148;39.604;2022-11-15T07:31:25;101963.97;;;4.20;70.70
52032;BME280;38044;45.148;39.604;2022-11-15T07:33:50;101924.47;;;3.86;70.44
52032;BME280;38044;45.148;39.604;2022-11-15T07:36:16;102087.22;;;4.72;70.60
52032;BME280;38044;45.148;39.604;2022-11-15T07:38:42;102090.03;;;4.78;71.41
52032;BME280;38044;45.148;39.604;2022-11-15T07:41:08;102097.31;;;4.95;71.14
52032;BME280;38044;45.148;39.604;2022-11-15T07:43:34;102059.69;;;4.79;70.78
52032;BME280;38044;45.148;39.604;2022-11-15T07:46:06;102083.53;;;4.99;70.99
52032;BME280;38044;45.148;39.604;2022-11-15T07:48:35;101946.19;;;4.21;71.18
52032;BME280;38044;45.148;39.604;2022-11-15T07:51:01;102081.59;;;5.12;71.72
52032;BME280;38044;45.148;39.604;2022-11-15T07:53:28;101923.28;;;4.45;70.83
52032;BME280;38044;45.148;39.604;2022-11-15T07:55:54;102074.72;;;5.48;70.53
52032;BME280;38044;45.148;39.604;2022-11-15T07:58:19;101908.72;;;4.72;70.31
52032;BME280;38044;45.148;39.604;2022-11-15T08:00:45;102033.00;;;5.72;70.12
52032;BME280;38044;45.148;39.604;2022-11-15T08:03:14;101961.22;;;5.34;69.33
52032;BME280;38044;45.148;39.604;2022-11-15T08:05:41;102076.31;;;5.93;69.47
52032;BME280;38044;45.148;39.604;2022-11-15T08:08:09;102070.13;;;6.47;69.83
52032;BME280;38044;45.148;39.604;2022-11-15T08:10:36;102071.06;;;6.83;68.64
52032;BME280;38044;45.148;39.604;2022-11-15T08:13:04;102069.47;;;6.94;67.77
52032;BME280;38044;45.148;39.604;2022-11-15T08:15:31;102026.47;;;6.95;67.81
52032;BME280;38044;45.148;39.604;2022-11-15T08:17:59;102068.13;;;7.62;66.58
52032;BME280;38044;45.148;39.604;2022-11-15T08:20:27;102069.69;;;7.86;66.18
52032;BME280;38044;45.148;39.604;2022-11-15T08:23:00;101921.34;;;7.30;65.68
52032;BME280;38044;45.148;39.604;2022-11-15T08:25:28;102067.09;;;8.44;65.21
52032;BME280;38044;45.148;39.604;2022-11-15T08:27:58;102002.88;;;8.20;64.16
52032;BME280;38044;45.148;39.604;2022-11-15T08:30:25;102071.59;;;8.55;64.30
52032;BME280;38044;45.148;39.604;2022-11-15T08:32:52;102061.28;;;9.26;63.54
52032;BME280;38044;45.148;39.604;2022-11-15T08:35:19;102061.47;;;10.24;62.16
52032;BME280;38044;45.148;39.604;2022-11-15T08:37:46;102049.66;;;11.07;59.49
52032;BME280;38044;45.148;39.604;2022-11-15T08:40:12;102018.22;;;11.60;57.80
52032;BME280;38044;45.148;39.604;2022-11-15T08:42:39;101919.22;;;11.24;56.92
52032;BME280;38044;45.148;39.604;2022-11-15T08:45:07;101956.91;;;11.87;56.52
52032;BME280;38044;45.148;39.604;2022-11-15T08:47:33;102050.38;;;12.96;55.47
52032;BME280;38044;45.148;39.604;2022-11-15T08:49:59;101916.56;;;12.44;54.81
52032;BME280;38044;45.148;39.604;2022-11-15T08:52:25;102014.09;;;13.58;53.95
52032;BME280;38044;45.148;39.604;2022-11-15T08:54:51;102058.63;;;13.76;52.81
52032;BME280;38044;45.148;39.604;2022-11-15T08:57:17;102043.28;;;13.61;52.57
52032;BME280;38044;45.148;39.604;2022-11-15T08:59:43;102037.31;;;13.64;51.66
52032;BME280;38044;45.148;39.604;2022-11-15T09:02:13;102032.56;;;14.06;51.80
52032;BME280;38044;45.148;39.604;2022-11-15T09:04:41;102006.91;;;13.98;51.27
52032;BME280;38044;45.148;39.604;2022-11-15T09:07:09;102048.34;;;14.38;51.12
52032;BME280;38044;45.148;39.604;2022-11-15T09:09:35;101948.59;;;13.82;49.71
52032;BME280;38044;45.148;39.604;2022-11-15T09:12:01;101995.75;;;14.10;49.25
52032;BME280;38044;45.148;39.604;2022-11-15T09:14:27;101927.06;;;13.71;48.14
52032;BME280;38044;45.148;39.604;2022-11-15T09:16:52;102008.50;;;14.04;47.83
52032;BME280;38044;45.148;39.604;2022-11-15T09:19:18;101991.34;;;13.74;48.97
52032;BME280;38044;45.148;39.604;2022-11-15T09:21:44;102018.63;;;13.83;48.94
52032;BME280;38044;45.148;39.604;2022-11-15T09:24:10;101908.97;;;12.92;48.61
52032;BME280;38044;45.148;39.604;2022-11-15T09:26:36;101973.09;;;13.46;48.52
52032;BME280;38044;45.148;39.604;2022-11-15T09:29:02;101974.13;;;13.60;48.36
52032;BME280;38044;45.148;39.604;2022-11-15T09:31:28;101982.22;;;13.65;46.81
52032;BME280;38044;45.148;39.604;2022-11-15T09:33:55;101972.06;;;13.32;46.81
52032;BME280;38044;45.148;39.604;2022-11-15T09:36:20;101762.38;;;11.95;46.70
52032;BME280;38044;45.148;39.604;2022-11-15T09:38:47;101947.00;;;12.95;45.21
52032;BME280;38044;45.148;39.604;2022-11-15T09:49:29;101848.06;;;11.99;46.69
52032;BME280;38044;45.148;39.604;2022-11-15T09:51:57;101947.84;;;12.70;47.23
52032;BME280;38044;45.148;39.604;2022-11-15T09:54:33;101957.50;;;13.02;47.08
52032;BME280;38044;45.148;39.604;2022-11-15T10:05:23;101978.59;;;12.90;47.65
52032;BME280;38044;45.148;39.604;2022-11-15T10:10:45;101828.66;;;11.76;48.64
52032;BME280;38044;45.148;39.604;2022-11-15T10:13:25;101824.88;;;11.77;49.66
52032;BME280;38044;45.148;39.604;2022-11-15T10:15:55;101967.28;;;12.47;49.78
52032;BME280;38044;45.148;39.604;2022-11-15T10:18:55;101957.28;;;12.78;50.00
52032;BME280;38044;45.148;39.604;2022-11-15T10:24:17;101803.19;;;10.58;49.51
52032;BME280;38044;45.148;39.604;2022-11-15T10:26:48;101951.19;;;11.16;49.96
52032;BME280;38044;45.148;39.604;2022-11-15T10:29:21;101965.28;;;10.86;50.96
52032;BME280;38044;45.148;39.604;2022-11-15T10:31:48;101792.97;;;9.53;51.43
52032;BME280;38044;45.148;39.604;2022-11-15T10:34:16;101920.03;;;10.40;51.35
52032;BME280;38044;45.148;39.604;2022-11-15T10:37:02;101828.47;;;9.87;50.53
52032;BME280;38044;45.148;39.604;2022-11-15T10:39:28;101901.47;;;10.11;50.31
52032;BME280;38044;45.148;39.604;2022-11-15T10:41:54;101896.38;;;9.83;50.44
52032;BME280;38044;45.148;39.604;2022-11-15T10:44:28;101955.06;;;9.96;52.03
52032;BME280;38044;45.148;39.604;2022-11-15T10:49:25;101945.56;;;10.15;51.36
52032;BME280;38044;45.148;39.604;2022-11-15T10:54:38;101942.84;;;10.10;50.70
52032;BME280;38044;45.148;39.604;2022-11-15T11:11:00;101864.91;;;9.07;52.31
52032;BME280;38044;45.148;39.604;2022-11-15T12:27:43;101866.69;;;7.83;56.59
52032;BME280;38044;45.148;39.604;2022-11-15T12:30:16;101857.63;;;7.84;56.11
52032;BME280;38044;45.148;39.604;2022-11-15T12:32:55;101873.31;;;7.93;55.94
52032;BME280;38044;45.148;39.604;2022-11-15T12:35:38;101720.50;;;7.03;55.64
52032;BME280;38044;45.148;39.604;2022-11-15T12:38:04;101729.78;;;7.00;55.45
52032;BME280;38044;45.148;39.604;2022-11-15T12:40:37;101822.19;;;7.49;55.59
52032;BME280;38044;45.148;39.604;2022-11-15T12:45:39;101856.16;;;7.77;55.85
52032;BME280;38044;45.148;39.604;2022-11-15T12:58:59;101879.91;;;7.73;56.10
52032;BME280;38044;45.148;39.604;2022-11-15T13:04:23;101761.00;;;6.83;56.58
52032;BME280;38044;45.148;39.604;2022-11-15T13:07:05;101835.38;;;7.27;56.61
52032;BME280;38044;45.148;39.604;2022-11-15T13:12:47;101863.63;;;7.34;56.66
52032;BME280;38044;45.148;39.604;2022-11-15T13:17:55;101816.50;;;7.05;57.05
52032;BME280;38044;45.148;39.604;2022-11-15T13:20:26;101828.03;;;6.93;57.22
52032;BME280;38044;45.148;39.604;2022-11-15T13:30:54;101701.84;;;5.92;57.76
52032;BME280;38044;45.148;39.604;2022-11-15T13:33:28;101863.16;;;6.85;57.91
52032;BME280;38044;45.148;39.604;2022-11-15T13:35:57;101856.53;;;6.76;58.20
52032;BME280;38044;45.148;39.604;2022-11-15T13:40:50;101852.00;;;6.53;58.64
52032;BME280;38044;45.148;39.604;2022-11-15T13:46:23;101842.47;;;6.45;59.20
52032;BME280;38044;45.148;39.604;2022-11-15T13:49:00;101809.59;;;6.09;59.49
52032;BME280;38044;45.148;39.604;2022-11-15T13:56:54;101788.47;;;5.66;60.41
52032;BME280;38044;45.148;39.604;2022-11-15T13:59:35;101760.00;;;5.48;60.52
52032;BME280;38044;45.148;39.604;2022-11-15T14:02:14;101821.56;;;5.77;60.72
52032;BME280;38044;45.148;39.604;2022-11-15T14:04:57;101840.69;;;5.74;61.04
52032;BME280;38044;45.148;39.604;2022-11-15T14:07:25;101817.31;;;5.57;61.25
52032;BME280;38044;45.148;39.604;2022-11-15T14:09:53;101625.00;;;4.33;61.21
52032;BME280;38044;45.148;39.604;2022-11-15T14:12:32;101812.75;;;5.46;61.65
52032;BME280;38044;45.148;39.604;2022-11-15T14:15:02;101792.72;;;5.25;62.13
52032;BME280;38044;45.148;39.604;2022-11-15T14:17:43;101633.38;;;4.18;62.08
52032;BME280;38044;45.148;39.604;2022-11-15T14:22:55;101765.59;;;4.98;62.65
52032;BME280;38044;45.148;39.604;2022-11-15T14:25:26;101749.75;;;4.85;62.89
52032;BME280;38044;45.148;39.604;2022-11-15T14:30:53;101778.78;;;4.93;63.17
52032;BME280;38044;45.148;39.604;2022-11-15T14:33:37;101640.16;;;3.96;63.16
52032;BME280;38044;45.148;39.604;2022-11-15T14:36:18;101800.22;;;4.80;63.65
52032;BME280;38044;45.148;39.604;2022-11-15T14:38:45;101735.72;;;4.41;63.75
52032;BME280;38044;45.148;39.604;2022-11-15T14:41:18;101790.66;;;4.72;64.11
52032;BME280;38044;45.148;39.604;2022-11-15T14:43:44;101794.66;;;4.63;64.27
52032;BME280;38044;45.148;39.604;2022-11-15T14:46:10;101619.69;;;3.53;64.44
52032;BME280;38044;45.148;39.604;2022-11-15T14:48:36;101780.47;;;4.50;64.53
52032;BME280;38044;45.148;39.604;2022-11-15T14:51:02;101585.19;;;3.21;64.44
52032;BME280;38044;45.148;39.604;2022-11-15T14:53:28;101800.78;;;4.45;64.76
52032;BME280;38044;45.148;39.604;2022-11-15T14:55:53;101786.72;;;4.38;64.78
52032;BME280;38044;45.148;39.604;2022-11-15T14:58:19;101742.38;;;4.06;65.12
52032;BME280;38044;45.148;39.604;2022-11-15T15:00:45;101779.47;;;4.26;65.08
52032;BME280;38044;45.148;39.604;2022-11-15T15:03:11;101772.50;;;4.25;65.53
52032;BME280;38044;45.148;39.604;2022-11-15T15:05:40;101600.03;;;3.04;65.56
52032;BME280;38044;45.148;39.604;2022-11-15T15:08:06;101782.06;;;4.08;65.73
52032;BME280;38044;45.148;39.604;2022-11-15T15:10:38;101624.94;;;3.09;65.70
52032;BME280;38044;45.148;39.604;2022-11-15T15:13:05;101777.44;;;3.97;66.01
52032;BME280;38044;45.148;39.604;2022-11-15T15:15:34;101775.66;;;3.91;65.94
52032;BME280;38044;45.148;39.604;2022-11-15T15:18:02;101680.00;;;3.27;66.27
52032;BME280;38044;45.148;39.604;2022-11-15T15:20:29;101581.88;;;2.62;66.23
52032;BME280;38044;45.148;39.604;2022-11-15T15:22:55;101766.59;;;3.73;66.29
52032;BME280;38044;45.148;39.604;2022-11-15T15:27:53;101767.63;;;3.72;66.40
52032;BME280;38044;45.148;39.604;2022-11-15T15:30:19;101783.97;;;3.76;66.52
52032;BME280;38044;45.148;39.604;2022-11-15T15:32:45;101786.81;;;3.74;66.65
52032;BME280;38044;45.148;39.604;2022-11-15T15:35:15;101782.53;;;3.73;66.95
52032;BME280;38044;45.148;39.604;2022-11-15T15:37:43;101776.72;;;3.58;67.01
52032;BME280;38044;45.148;39.604;2022-11-15T15:40:20;101724.97;;;3.22;67.41
52032;BME280;38044;45.148;39.604;2022-11-15T15:42:50;101772.66;;;3.49;67.34
52032;BME280;38044;45.148;39.604;2022-11-15T15:45:17;101604.41;;;2.53;67.28
52032;BME280;38044;45.148;39.604;2022-11-15T15:47:44;101772.34;;;3.38;67.36
52032;BME280;38044;45.148;39.604;2022-11-15T15:50:33;101755.53;;;3.45;67.34
52032;BME280;38044;45.148;39.604;2022-11-15T15:53:02;101763.31;;;3.39;67.41
52032;BME280;38044;45.148;39.604;2022-11-15T15:55:28;101650.91;;;2.69;67.35
52032;BME280;38044;45.148;39.604;2022-11-15T15:57:54;101712.19;;;3.06;67.35
52032;BME280;38044;45.148;39.604;2022-11-15T16:00:22;101547.09;;;2.00;67.62
52032;BME280;38044;45.148;39.604;2022-11-15T16:02:49;101731.91;;;3.23;67.89
52032;BME280;38044;45.148;39.604;2022-11-15T16:05:15;101738.88;;;3.24;67.71
52032;BME280;38044;45.148;39.604;2022-11-15T16:07:43;101700.78;;;2.99;67.88
52032;BME280;38044;45.148;39.604;2022-11-15T16:10:20;101727.63;;;3.22;68.01
52032;BME280;38044;45.148;39.604;2022-11-15T16:12:47;101535.84;;;1.98;67.91
52032;BME280;38044;45.148;39.604;2022-11-15T16:15:14;101735.44;;;3.17;67.86